createdAt,value
2019-01-12T00:00:34.589Z,11.23
2019-01-12T00:03:03.058Z,9.30
2019-01-12T00:05:31.625Z,9.53
2019-01-12T00:08:00.108Z,11.77
2019-01-12T00:10:28.585Z,9.23
2019-01-12T00:12:57.156Z,9.10
2019-01-12T00:15:25.633Z,10.07
2019-01-12T00:17:54.118Z,9.73
2019-01-12T00:20:22.693Z,11.77
2019-01-12T00:22:51.183Z,9.77
2019-01-12T00:25:19.677Z,11.53
2019-01-12T00:27:48.324Z,8.20
2019-01-12T00:30:16.933Z,9.00
2019-01-12T00:32:45.473Z,9.00
2019-01-12T00:35:14.024Z,8.30
2019-01-12T00:37:42.496Z,7.70
2019-01-12T00:40:11.099Z,8.80
2019-01-12T00:42:39.588Z,9.43
2019-01-12T00:45:11.356Z,8.83
2019-01-12T00:47:39.997Z,8.80
2019-01-12T00:50:11.508Z,12.20
2019-01-12T00:52:40.149Z,8.50
2019-01-12T00:55:08.740Z,7.97
2019-01-12T00:57:37.209Z,7.67
2019-01-12T01:00:11.457Z,8.47
2019-01-12T01:02:39.934Z,8.30
2019-01-12T01:05:09.477Z,7.00
2019-01-12T01:07:38.096Z,7.83
2019-01-12T01:10:09.607Z,7.70
2019-01-12T01:12:38.085Z,8.07
2019-01-12T01:15:09.085Z,6.17
2019-01-12T01:17:37.765Z,6.50
2019-01-12T01:20:08.885Z,7.23
2019-01-12T01:22:37.432Z,7.27
2019-01-12T01:25:07.753Z,8.97
2019-01-12T01:27:36.260Z,7.03
2019-01-12T01:30:07.772Z,8.63
2019-01-12T01:32:36.240Z,6.97
2019-01-12T01:35:06.577Z,8.63
2019-01-12T01:37:35.217Z,9.30
2019-01-12T01:40:04.889Z,9.40
2019-01-12T01:42:33.396Z,8.07
2019-01-12T01:45:01.877Z,8.37
2019-01-12T01:47:30.344Z,8.77
2019-01-12T01:49:58.829Z,7.67
2019-01-12T01:52:27.389Z,8.13
2019-01-12T01:54:55.864Z,7.47
2019-01-12T01:57:24.356Z,6.83
2019-01-12T01:59:52.821Z,7.47
2019-01-12T02:02:21.298Z,10.07
2019-01-12T02:04:49.809Z,6.77
2019-01-12T02:07:18.282Z,7.60
2019-01-12T02:09:46.762Z,7.40
2019-01-12T02:12:15.249Z,6.97
2019-01-12T02:14:43.720Z,6.37
2019-01-12T02:17:12.208Z,5.87
2019-01-12T02:19:40.706Z,6.37
2019-01-12T02:22:09.300Z,5.53
2019-01-12T02:24:37.772Z,7.20
2019-01-12T02:27:06.258Z,6.67
2019-01-12T02:29:34.738Z,8.43
2019-01-12T02:32:03.195Z,7.43
2019-01-12T02:34:31.677Z,9.23
2019-01-12T02:37:00.138Z,9.93
2019-01-12T02:39:28.633Z,9.93
2019-01-12T02:41:57.105Z,9.40
2019-01-12T02:44:25.678Z,10.03
2019-01-12T02:46:54.208Z,12.93
2019-01-12T02:49:22.680Z,10.50
2019-01-12T02:51:51.251Z,11.77
2019-01-12T02:54:19.737Z,12.10
2019-01-12T02:56:48.233Z,11.20
2019-01-12T02:59:16.728Z,11.97
2019-01-12T03:01:45.285Z,11.47
2019-01-12T03:04:13.774Z,12.07
2019-01-12T03:06:42.236Z,10.60
2019-01-12T03:09:10.769Z,14.63
2019-01-12T03:11:39.284Z,13.10
2019-01-12T03:14:07.861Z,11.17
2019-01-12T03:16:36.344Z,12.57
2019-01-12T03:19:04.826Z,10.47
2019-01-12T03:21:33.358Z,12.90
2019-01-12T03:24:01.866Z,11.70
2019-01-12T03:26:30.346Z,12.03
2019-01-12T03:28:58.835Z,12.57
2019-01-12T03:31:27.340Z,12.13
2019-01-12T03:33:55.958Z,14.70
2019-01-12T03:36:24.576Z,13.57
2019-01-12T03:38:53.053Z,13.30
2019-01-12T03:41:21.557Z,15.87
2019-01-12T03:43:50.126Z,14.77
2019-01-12T03:46:19.124Z,15.83
2019-01-12T03:48:47.620Z,15.73
2019-01-12T03:51:16.073Z,14.40
2019-01-12T03:53:44.533Z,15.40
2019-01-12T03:56:13.048Z,15.67
2019-01-12T03:58:41.529Z,15.70
2019-01-12T04:01:10.149Z,17.57
2019-01-12T04:03:38.645Z,13.13
2019-01-12T04:06:07.116Z,19.70
2019-01-12T04:08:35.585Z,16.83
2019-01-12T04:11:04.168Z,16.17
2019-01-12T04:13:32.623Z,17.50
2019-01-12T04:16:01.134Z,16.80
2019-01-12T04:18:29.604Z,18.13
2019-01-12T04:20:58.098Z,16.40
2019-01-12T04:23:26.669Z,18.53
2019-01-12T04:25:56.320Z,17.33
2019-01-12T04:28:24.794Z,18.00
2019-01-12T04:30:53.360Z,16.40
2019-01-12T04:33:21.837Z,18.63
2019-01-12T04:35:50.440Z,16.40
2019-01-12T04:38:18.957Z,16.03
2019-01-12T04:40:47.457Z,20.03
2019-01-12T04:43:15.921Z,28.23
2019-01-12T04:45:44.425Z,16.20
2019-01-12T04:48:12.917Z,18.13
2019-01-12T04:50:41.481Z,18.47
2019-01-12T04:53:09.970Z,22.50
2019-01-12T04:55:41.612Z,17.13
2019-01-12T04:58:08.686Z,16.77
2019-01-12T05:00:37.162Z,14.40
2019-01-12T05:03:05.649Z,16.90
2019-01-12T05:05:34.139Z,18.43
2019-01-12T05:08:02.606Z,14.03
2019-01-12T05:10:31.125Z,16.20
2019-01-12T05:12:59.604Z,16.17
2019-01-12T05:15:28.104Z,15.93
2019-01-12T05:17:56.600Z,15.57
2019-01-12T05:20:25.073Z,15.77
2019-01-12T05:22:53.648Z,16.13
2019-01-12T05:25:22.200Z,17.23
2019-01-12T05:27:50.746Z,15.07
2019-01-12T05:30:20.164Z,12.10
2019-01-12T05:32:48.719Z,12.83
2019-01-12T05:35:17.201Z,11.47
2019-01-12T05:37:45.769Z,13.00
2019-01-12T05:40:16.275Z,9.77
2019-01-12T05:42:44.889Z,10.57
2019-01-12T05:45:14.068Z,10.23
2019-01-12T05:47:42.558Z,12.83
2019-01-12T05:50:12.778Z,10.60
2019-01-12T05:52:41.361Z,10.40
2019-01-12T05:55:10.085Z,10.23
2019-01-12T05:57:38.549Z,12.73
2019-01-12T06:00:16.220Z,13.43
2019-01-12T06:02:44.714Z,11.60
2019-01-12T06:05:13.386Z,11.70
2019-01-12T06:07:41.876Z,19.03
2019-01-12T06:10:12.122Z,14.77
2019-01-12T06:12:40.605Z,11.00
2019-01-12T06:15:11.007Z,18.60
2019-01-12T06:17:39.705Z,12.83
2019-01-12T06:20:11.121Z,12.90
2019-01-12T06:22:39.689Z,11.37
2019-01-12T06:25:08.294Z,10.07
2019-01-12T06:27:36.845Z,15.40
2019-01-12T06:30:08.382Z,18.57
2019-01-12T06:32:36.852Z,13.70
2019-01-12T06:35:05.501Z,16.17
2019-01-12T06:37:33.993Z,13.07
2019-01-12T06:40:02.632Z,12.17
2019-01-12T06:42:31.133Z,11.67
2019-01-12T06:44:59.629Z,16.43
2019-01-12T06:47:28.098Z,13.70
2019-01-12T06:49:56.660Z,10.27
2019-01-12T06:52:25.139Z,12.13
2019-01-12T06:54:53.665Z,9.40
2019-01-12T06:57:22.156Z,10.77
2019-01-12T06:59:50.633Z,17.63
2019-01-12T07:02:19.112Z,12.03
2019-01-12T07:04:47.584Z,12.80
2019-01-12T07:07:16.040Z,13.17
2019-01-12T07:09:44.536Z,17.20
2019-01-12T07:12:13.012Z,14.57
2019-01-12T07:14:41.501Z,14.67
2019-01-12T07:17:10.065Z,10.77
2019-01-12T07:19:38.621Z,13.47
2019-01-12T07:22:07.083Z,13.57
2019-01-12T07:24:35.533Z,13.57
2019-01-12T07:27:04.108Z,15.37
2019-01-12T07:29:32.568Z,12.90
2019-01-12T07:32:01.032Z,9.33
2019-01-12T07:34:29.545Z,13.70
2019-01-12T07:36:58.104Z,13.77
2019-01-12T07:39:26.584Z,14.17
2019-01-12T07:41:55.049Z,13.70
2019-01-12T07:44:23.556Z,11.33
2019-01-12T07:46:52.064Z,11.97
2019-01-12T07:49:20.568Z,13.03
2019-01-12T07:51:49.042Z,11.87
2019-01-12T07:54:17.504Z,10.83
2019-01-12T07:56:45.962Z,11.80
2019-01-12T07:59:14.465Z,11.17
2019-01-12T08:01:42.909Z,11.07
2019-01-12T08:04:11.449Z,12.00
2019-01-12T08:06:39.952Z,12.43
2019-01-12T08:09:09.153Z,15.17
2019-01-12T08:11:37.637Z,11.47
2019-01-12T08:14:06.176Z,14.80
2019-01-12T08:16:34.684Z,13.63
2019-01-12T08:19:03.234Z,9.93
2019-01-12T08:21:31.797Z,12.63
2019-01-12T08:24:00.278Z,11.23
2019-01-12T08:26:31.228Z,12.43
2019-01-12T08:28:58.969Z,18.03
2019-01-12T08:31:27.444Z,10.87
2019-01-12T08:33:55.992Z,11.73
2019-01-12T08:36:24.500Z,10.70
2019-01-12T08:38:53.004Z,10.47
2019-01-12T08:41:21.473Z,13.50
2019-01-12T08:43:49.949Z,9.80
2019-01-12T08:46:18.501Z,10.30
2019-01-12T08:48:47.025Z,9.57
2019-01-12T08:51:17.085Z,9.33
2019-01-12T08:53:45.540Z,11.47
2019-01-12T08:56:14.022Z,10.20
2019-01-12T08:58:42.504Z,11.57
2019-01-12T09:01:10.973Z,14.87
2019-01-12T09:03:39.457Z,13.30
2019-01-12T09:06:08.013Z,11.17
2019-01-12T09:08:36.505Z,13.57
2019-01-12T09:11:05.148Z,11.47
2019-01-12T09:13:33.627Z,13.83
2019-01-12T09:16:02.086Z,12.10
2019-01-12T09:18:30.590Z,12.23
2019-01-12T09:20:59.076Z,9.83
2019-01-12T09:23:27.540Z,9.73
2019-01-12T09:25:56.084Z,10.83
2019-01-12T09:28:24.580Z,12.57
2019-01-12T09:30:53.047Z,13.77
2019-01-12T09:33:21.550Z,17.07
2019-01-12T09:35:50.240Z,10.13
2019-01-12T09:38:18.861Z,11.57
2019-01-12T09:40:47.344Z,12.23
2019-01-12T09:43:15.816Z,12.90
2019-01-12T09:45:44.305Z,16.87
2019-01-12T09:48:12.808Z,10.40
2019-01-12T09:50:41.270Z,11.63
2019-01-12T09:53:09.800Z,12.27
2019-01-12T09:55:38.304Z,16.40
2019-01-12T09:58:06.781Z,17.97
2019-01-12T10:00:36.164Z,21.13
2019-01-12T10:03:04.668Z,14.60
2019-01-12T10:05:33.272Z,13.20
2019-01-12T10:08:01.745Z,19.33
2019-01-12T10:10:30.304Z,21.77
2019-01-12T10:12:58.816Z,15.77
2019-01-12T10:15:27.333Z,20.83
2019-01-12T10:17:55.813Z,15.20
2019-01-12T10:20:24.883Z,13.17
2019-01-12T10:22:53.444Z,17.53
2019-01-12T10:25:22.022Z,14.80
2019-01-12T10:27:50.548Z,18.53
2019-01-12T10:30:21.535Z,17.67
2019-01-12T10:32:50.274Z,24.70
2019-01-12T10:35:18.897Z,16.63
2019-01-12T10:37:47.517Z,16.90
2019-01-12T10:40:18.461Z,13.53
2019-01-12T10:42:47.125Z,14.30
2019-01-12T10:45:18.405Z,15.67
2019-01-12T10:47:47.512Z,13.67
2019-01-12T10:50:27.666Z,13.37
2019-01-12T10:52:56.209Z,11.80
2019-01-12T10:55:24.692Z,12.10
2019-01-12T10:57:53.160Z,11.40
2019-01-12T11:00:27.633Z,12.20
2019-01-12T11:02:56.177Z,13.17
2019-01-12T11:05:24.734Z,11.77
2019-01-12T11:07:53.207Z,10.33
2019-01-12T11:10:21.840Z,11.80
2019-01-12T11:12:50.337Z,14.30
2019-01-12T11:15:21.254Z,13.33
2019-01-12T11:17:50.200Z,12.00
2019-01-12T11:20:18.804Z,10.47
2019-01-12T11:22:47.431Z,11.27
2019-01-12T11:25:16.467Z,13.43
2019-01-12T11:27:45.004Z,12.43
2019-01-12T11:30:18.650Z,14.63
2019-01-12T11:32:47.227Z,11.37
2019-01-12T11:35:15.948Z,16.17
2019-01-12T11:37:45.265Z,13.33
2019-01-12T11:40:16.823Z,13.53
2019-01-12T11:42:45.448Z,14.77
2019-01-12T11:45:14.863Z,14.17
2019-01-12T11:47:48.657Z,12.60
2019-01-12T11:50:17.399Z,11.60
2019-01-12T11:52:46.386Z,10.00
2019-01-12T11:55:16.604Z,10.23
2019-01-12T11:57:45.295Z,12.20
2019-01-12T12:00:19.380Z,10.80
2019-01-12T12:02:47.918Z,11.33
2019-01-12T12:05:17.353Z,9.93
2019-01-12T12:07:46.153Z,10.37
2019-01-12T12:10:16.351Z,13.13
2019-01-12T12:12:44.901Z,11.77
2019-01-12T12:15:16.165Z,18.10
2019-01-12T12:17:44.792Z,13.23
2019-01-12T12:20:16.266Z,13.60
2019-01-12T12:22:44.750Z,11.83
2019-01-12T12:25:13.997Z,14.13
2019-01-12T12:27:42.528Z,18.10
2019-01-12T12:30:16.551Z,14.73
2019-01-12T12:32:45.094Z,13.53
2019-01-12T12:35:13.641Z,12.07
2019-01-12T12:37:42.195Z,11.93
2019-01-12T12:40:13.884Z,10.63
2019-01-12T12:42:42.372Z,12.37
2019-01-12T12:45:14.156Z,11.37
2019-01-12T12:47:42.856Z,12.30
2019-01-12T12:50:13.686Z,15.60
2019-01-12T12:52:42.294Z,10.80
2019-01-12T12:55:13.208Z,12.03
2019-01-12T12:57:41.900Z,8.73
2019-01-12T13:00:15.996Z,8.67
2019-01-12T13:02:44.704Z,10.40
2019-01-12T13:05:13.229Z,10.20
2019-01-12T13:07:41.940Z,9.43
2019-01-12T13:10:17.881Z,9.90
2019-01-12T13:12:46.536Z,10.50
2019-01-12T13:15:15.944Z,10.10
2019-01-12T13:17:44.585Z,11.30
2019-01-12T13:20:18.452Z,10.83
2019-01-12T13:22:47.452Z,9.83
2019-01-12T13:25:16.472Z,9.90
2019-01-12T13:27:45.117Z,9.10
2019-01-12T13:30:19.194Z,8.40
2019-01-12T13:32:47.709Z,8.63
2019-01-12T13:35:16.268Z,8.07
2019-01-12T13:37:44.811Z,13.00
2019-01-12T13:40:19.016Z,13.73
2019-01-12T13:42:47.485Z,12.13
2019-01-12T13:45:18.112Z,15.87
2019-01-12T13:47:46.675Z,11.50
2019-01-12T13:50:20.882Z,13.23
2019-01-12T13:52:49.530Z,8.77
2019-01-12T13:55:18.089Z,8.07
2019-01-12T13:57:48.200Z,8.50
2019-01-12T14:00:22.756Z,8.53
2019-01-12T14:02:51.309Z,9.60
2019-01-12T14:05:19.849Z,7.60
2019-01-12T14:07:48.481Z,11.00
2019-01-12T14:10:19.568Z,9.40
2019-01-12T14:12:48.105Z,9.33
2019-01-12T14:15:18.306Z,7.80
2019-01-12T14:17:47.045Z,8.30
2019-01-12T14:20:21.358Z,12.00
2019-01-12T14:22:49.818Z,9.73
2019-01-12T14:25:18.390Z,9.67
2019-01-12T14:27:54.335Z,16.63
2019-01-12T14:30:19.453Z,10.87
2019-01-12T14:32:48.028Z,11.50
2019-01-12T14:35:18.335Z,12.13
2019-01-12T14:37:47.117Z,10.17
2019-01-12T14:40:18.217Z,12.87
2019-01-12T14:42:46.833Z,9.70
2019-01-12T14:45:27.120Z,11.67
2019-01-12T14:47:55.922Z,13.23
2019-01-12T14:50:24.697Z,14.77
2019-01-12T14:52:53.232Z,18.67
2019-01-12T14:55:22.960Z,21.33
2019-01-12T14:57:51.573Z,18.80
2019-01-12T15:00:25.363Z,26.47
2019-01-12T15:02:54.072Z,14.10
2019-01-12T15:05:25.061Z,16.10
2019-01-12T15:07:53.673Z,15.90
2019-01-12T15:10:22.283Z,11.80
2019-01-12T15:12:51.666Z,13.13
2019-01-12T15:15:20.475Z,9.70
2019-01-12T15:17:49.135Z,8.83
2019-01-12T15:20:20.518Z,11.07
2019-01-12T15:22:49.174Z,9.97
2019-01-12T15:25:17.817Z,9.23
2019-01-12T15:27:51.460Z,11.07
2019-01-12T15:30:25.141Z,11.07
2019-01-12T15:32:53.689Z,12.77
2019-01-12T15:35:23.993Z,13.43
2019-01-12T15:37:52.475Z,13.53
2019-01-12T15:40:22.388Z,20.57
2019-01-12T15:42:50.853Z,15.13
2019-01-12T15:45:27.000Z,16.47
2019-01-12T15:47:55.629Z,35.97
2019-01-12T15:50:26.620Z,14.93
2019-01-12T15:52:55.385Z,20.70
2019-01-12T15:55:24.563Z,15.53
2019-01-12T15:57:53.177Z,19.57
2019-01-12T16:00:24.106Z,18.47
2019-01-12T16:02:52.658Z,16.50
2019-01-12T16:05:21.269Z,15.00
2019-01-12T16:07:49.762Z,14.53
2019-01-12T16:10:18.300Z,16.10
2019-01-12T16:12:47.089Z,16.97
2019-01-12T16:15:18.470Z,12.60
2019-01-12T16:17:47.026Z,12.80
2019-01-12T16:20:21.301Z,13.47
2019-01-12T16:22:49.794Z,13.40
2019-01-12T16:25:18.265Z,13.97
2019-01-12T16:27:46.893Z,15.10
2019-01-12T16:30:17.630Z,13.50
2019-01-12T16:32:46.156Z,12.03
2019-01-12T16:35:14.793Z,13.50
2019-01-12T16:37:43.524Z,15.97
2019-01-12T16:40:17.963Z,14.53
2019-01-12T16:42:49.488Z,15.43
2019-01-12T16:45:18.116Z,13.23
2019-01-12T16:47:56.643Z,14.67
2019-01-12T16:50:25.112Z,13.13
2019-01-12T16:52:53.617Z,13.23
2019-01-12T16:55:22.093Z,11.03
2019-01-12T16:57:50.572Z,14.97
2019-01-12T17:00:22.312Z,16.37
2019-01-12T17:02:50.872Z,12.27
2019-01-12T17:05:19.529Z,12.87
2019-01-12T17:07:48.262Z,10.60
2019-01-12T17:10:19.465Z,12.83
2019-01-12T17:12:48.034Z,15.23
2019-01-12T17:15:18.442Z,12.67
2019-01-12T17:17:46.966Z,19.80
2019-01-12T17:20:19.291Z,14.27
2019-01-12T17:22:49.296Z,14.03
2019-01-12T17:25:17.833Z,16.60
2019-01-12T17:27:46.400Z,19.17
2019-01-12T17:30:18.171Z,15.40
2019-01-12T17:32:46.832Z,15.23
2019-01-12T17:35:15.580Z,14.40
2019-01-12T17:37:44.791Z,13.27
2019-01-12T17:40:14.916Z,18.17
2019-01-12T17:42:43.415Z,15.47
2019-01-12T17:45:20.408Z,15.27
2019-01-12T17:47:48.914Z,12.87
2019-01-12T17:50:19.607Z,14.00
2019-01-12T17:52:48.213Z,15.60
2019-01-12T17:55:21.964Z,16.90
2019-01-12T17:57:50.500Z,14.07
2019-01-12T18:00:41.377Z,14.07
2019-01-12T18:03:09.841Z,13.97
2019-01-12T18:05:38.314Z,13.10
2019-01-12T18:08:06.899Z,15.30
2019-01-12T18:10:35.380Z,14.07
2019-01-12T18:13:03.924Z,17.23
2019-01-12T18:15:32.426Z,16.03
2019-01-12T18:18:00.881Z,18.20
2019-01-12T18:20:29.446Z,21.87
2019-01-12T18:22:57.943Z,13.30
2019-01-12T18:25:26.502Z,13.73
2019-01-12T18:27:54.997Z,13.73
2019-01-12T18:30:26.588Z,11.17
2019-01-12T18:32:55.108Z,14.87
2019-01-12T18:35:23.968Z,24.20
2019-01-12T18:37:52.448Z,22.33
2019-01-12T18:40:21.779Z,20.60
2019-01-12T18:42:50.440Z,23.60
2019-01-12T18:45:20.512Z,21.97
2019-01-12T18:47:49.146Z,26.97
2019-01-12T18:50:20.360Z,24.53
2019-01-12T18:52:48.930Z,29.00
2019-01-12T18:55:17.477Z,27.07
2019-01-12T18:57:46.015Z,21.37
2019-01-12T19:00:23.152Z,20.73
2019-01-12T19:02:52.118Z,23.03
2019-01-12T19:05:20.824Z,21.33
2019-01-12T19:07:49.411Z,20.83
2019-01-12T19:10:18.014Z,20.07
2019-01-12T19:12:46.486Z,18.20
2019-01-12T19:15:26.612Z,21.73
2019-01-12T19:17:55.295Z,17.93
2019-01-12T19:20:23.988Z,20.20
2019-01-12T19:22:52.645Z,23.37
2019-01-12T19:25:21.201Z,21.43
2019-01-12T19:27:49.683Z,23.83
2019-01-12T19:30:22.428Z,21.33
2019-01-12T19:32:51.091Z,21.10
2019-01-12T19:35:19.625Z,22.10
2019-01-12T19:37:48.124Z,19.10
2019-01-12T19:40:19.297Z,15.67
2019-01-12T19:42:47.854Z,18.57
2019-01-12T19:45:17.092Z,18.77
2019-01-12T19:47:45.701Z,17.60
2019-01-12T19:50:17.296Z,18.07
2019-01-12T19:52:46.024Z,20.03
2019-01-12T19:55:14.484Z,22.33
2019-01-12T19:57:43.016Z,24.33
2019-01-12T20:00:14.560Z,19.43
2019-01-12T20:02:43.121Z,20.20
2019-01-12T20:05:11.749Z,23.60
2019-01-12T20:07:40.314Z,19.40
2019-01-12T20:10:12.457Z,19.20
2019-01-12T20:12:40.977Z,18.07
2019-01-12T20:15:13.088Z,18.67
2019-01-12T20:17:41.561Z,18.37
2019-01-12T20:20:13.016Z,19.57
2019-01-12T20:22:41.565Z,27.43
2019-01-12T20:25:13.360Z,22.13
2019-01-12T20:27:41.852Z,20.97
2019-01-12T20:30:16.040Z,19.10
2019-01-12T20:33:04.956Z,17.87
2019-01-12T20:35:48.228Z,20.43
2019-01-12T20:38:22.427Z,19.37
2019-01-12T20:40:59.585Z,18.87
2019-01-12T20:43:36.890Z,16.60
2019-01-12T20:46:20.248Z,15.90
2019-01-12T20:49:06.845Z,20.80
2019-01-12T20:51:56.216Z,18.90
2019-01-12T20:54:42.391Z,19.63
2019-01-12T20:57:37.796Z,19.40
2019-01-12T21:00:24.512Z,18.30
2019-01-12T21:03:08.018Z,19.20
2019-01-12T21:05:44.820Z,17.27
2019-01-12T21:08:22.381Z,18.60
2019-01-12T21:11:02.831Z,18.70
2019-01-12T21:13:37.313Z,18.67
2019-01-12T21:16:08.957Z,17.57
2019-01-12T21:18:37.429Z,22.20
2019-01-12T21:21:05.904Z,19.47
2019-01-12T21:23:34.474Z,21.47
2019-01-12T21:26:02.972Z,19.53
2019-01-12T21:28:31.470Z,20.23
2019-01-12T21:30:59.941Z,19.40
2019-01-12T21:33:28.423Z,21.23
2019-01-12T21:35:56.894Z,21.73
2019-01-12T21:38:25.397Z,19.90
2019-01-12T21:40:53.860Z,19.67
2019-01-12T21:43:22.328Z,19.20
2019-01-12T21:45:50.845Z,24.37
2019-01-12T21:48:19.440Z,22.13
2019-01-12T21:50:47.909Z,23.13
2019-01-12T21:53:16.485Z,27.03
2019-01-12T21:55:45.033Z,25.67
2019-01-12T21:58:13.496Z,26.93
2019-01-12T22:00:42.062Z,26.53
2019-01-12T22:03:10.608Z,21.47
2019-01-12T22:05:39.077Z,19.57
2019-01-12T22:08:07.570Z,18.77
2019-01-12T22:10:36.045Z,18.13
2019-01-12T22:13:04.660Z,20.23
2019-01-12T22:15:33.170Z,18.77
2019-01-12T22:18:01.820Z,18.40
2019-01-12T22:20:30.301Z,17.50
2019-01-12T22:22:58.795Z,17.37
2019-01-12T22:25:27.316Z,16.53
2019-01-12T22:27:55.957Z,17.20
2019-01-12T22:30:24.502Z,14.87
2019-01-12T22:32:52.992Z,14.73
2019-01-12T22:35:21.462Z,15.13
2019-01-12T22:37:50.068Z,13.93
2019-01-12T22:40:21.576Z,12.20
2019-01-12T22:42:50.048Z,10.93
2019-01-12T22:45:18.677Z,12.73
2019-01-12T22:47:47.168Z,11.93
2019-01-12T22:50:16.753Z,12.83
2019-01-12T22:52:45.506Z,10.63
2019-01-12T22:55:14.836Z,11.00
2019-01-12T22:57:43.589Z,9.87
2019-01-12T23:00:30.448Z,9.50
2019-01-12T23:02:59.040Z,9.97
2019-01-12T23:05:27.508Z,10.47
2019-01-12T23:07:56.023Z,10.67
2019-01-12T23:10:24.561Z,12.10
2019-01-12T23:12:53.064Z,13.47
2019-01-12T23:15:21.520Z,13.30
2019-01-12T23:17:50.009Z,11.33
2019-01-12T23:20:18.561Z,12.53
2019-01-12T23:22:47.184Z,12.27
2019-01-12T23:25:15.680Z,12.53
2019-01-12T23:27:44.374Z,11.37
2019-01-12T23:30:17.860Z,10.80
2019-01-12T23:32:46.353Z,10.90
2019-01-12T23:35:14.879Z,11.23
2019-01-12T23:37:43.407Z,12.87
2019-01-12T23:40:13.604Z,12.50
2019-01-12T23:42:42.260Z,12.87
2019-01-12T23:45:15.437Z,13.53
2019-01-12T23:47:43.933Z,12.53
2019-01-12T23:50:13.749Z,14.93
2019-01-12T23:52:42.277Z,12.60
2019-01-12T23:55:10.891Z,15.03
2019-01-12T23:57:39.451Z,14.20
